Time;durP1;ratioP1;P1;durP2;ratioP2;P2;SDS_P1;SDS_P2;PMS_P1;PMS_P2;Temp;Humidity;BMP_temperature;BMP_pressure;BME280_temperature;BME280_humidity;BME280_pressure;Samples;Min_cycle;Max_cycle;Signal;HPM_P1;HPM_P2
2023/10/05 00:03:50;;;;;;;0.10;0.10;;;;;;;9.08;80.29;99270.97;4987565;28;20050;-70
2023/10/05 00:06:17;;;;;;;0.10;0.10;;;;;;;9.05;80.36;99264.16;4969061;28;20047;-70
2023/10/05 00:08:47;;;;;;;0.10;0.10;;;;;;;9.07;80.29;99264.69;4967572;28;20900;-70
2023/10/05 00:11:23;;;;;;;0.10;0.10;;;;;;;9.10;80.61;99279.69;4968818;28;20050;-71
2023/10/05 00:13:50;;;;;;;0.00;0.00;;;;;;;9.10;80.79;99274.25;4965619;28;20047;-72
2023/10/05 00:16:22;;;;;;;0.10;0.10;;;;;;;9.08;81.21;99268.25;4951404;28;20050;-73
2023/10/05 00:18:52;;;;;;;0.10;0.10;;;;;;;9.06;81.36;99268.50;4965386;28;20055;-72
2023/10/05 00:21:20;;;;;;;0.10;0.10;;;;;;;9.07;81.31;99272.06;4964348;28;20121;-72
2023/10/05 00:23:54;;;;;;;0.10;0.10;;;;;;;9.05;81.78;99266.88;4966607;28;20074;-73
2023/10/05 00:26:22;;;;;;;0.10;0.10;;;;;;;9.08;81.67;99269.03;4966210;28;20426;-72
2023/10/05 00:29:15;;;;;;;0.00;0.00;;;;;;;9.06;81.66;99273.97;4972131;28;20516;-73
2023/10/05 00:31:42;;;;;;;0.00;0.00;;;;;;;9.05;81.51;99261.44;4982854;28;20066;-74
2023/10/05 00:34:15;;;;;;;0.10;0.10;;;;;;;9.05;81.86;99272.34;4965257;28;20062;-69
2023/10/05 00:36:43;;;;;;;0.10;0.10;;;;;;;9.02;81.94;99286.53;4948686;28;20078;-70
2023/10/05 00:39:10;;;;;;;0.10;0.10;;;;;;;9.03;81.94;99287.34;4963287;28;20514;-69
2023/10/05 00:41:38;;;;;;;0.10;0.10;;;;;;;9.03;81.68;99284.59;4962954;28;20049;-70
2023/10/05 00:44:05;;;;;;;0.10;0.10;;;;;;;8.99;82.06;99278.09;4966192;28;20055;-70
2023/10/05 00:46:32;;;;;;;;;;;;;;;8.96;81.99;99284.91;4969683;28;20525;-69
2023/10/05 00:49:17;;;;;;;0.00;0.00;;;;;;;8.93;82.01;99286.28;4965673;28;19925;-72
2023/10/05 00:52:08;;;;;;;0.10;0.10;;;;;;;8.89;82.67;99289.84;4981954;28;20520;-70
2023/10/05 00:54:36;;;;;;;0.00;0.00;;;;;;;8.87;82.71;99294.75;4951292;28;20261;-71
2023/10/05 00:57:09;;;;;;;0.10;0.10;;;;;;;8.87;83.35;99289.28;4963506;28;20058;-72
2023/10/05 00:59:36;;;;;;;0.10;0.10;;;;;;;8.90;83.12;99286.00;4964201;28;20066;-71
2023/10/05 01:04:53;;;;;;;0.00;0.00;;;;;;;8.88;83.82;99296.38;4980529;28;20047;-72
2023/10/05 01:14:53;;;;;;;0.10;0.10;;;;;;;8.76;83.86;99297.47;4947475;28;20588;-70
2023/10/05 01:17:20;;;;;;;0.00;0.00;;;;;;;8.78;84.34;99303.47;4964420;28;20058;-70
2023/10/05 01:19:50;;;;;;;0.00;0.00;;;;;;;8.78;84.56;99308.13;4948345;28;20062;-70
2023/10/05 01:22:20;;;;;;;0.10;0.10;;;;;;;8.75;84.85;99301.31;4963558;28;20055;-70
2023/10/05 01:24:48;;;;;;;0.03;0.03;;;;;;;8.73;85.06;99297.22;4932705;28;20105;-70
2023/10/05 01:27:15;;;;;;;0.10;0.10;;;;;;;8.70;85.43;99300.50;4985628;28;20473;-73
2023/10/05 01:29:43;;;;;;;0.00;0.00;;;;;;;8.68;85.55;99298.06;4982401;28;20435;-73
2023/10/05 01:32:10;;;;;;;0.00;0.00;;;;;;;8.64;85.82;99302.41;4984765;28;20528;-73
2023/10/05 01:34:37;;;;;;;0.00;0.00;;;;;;;8.63;85.83;99307.06;4964780;28;20058;-73
2023/10/05 01:37:04;;;;;;;0.10;0.10;;;;;;;8.61;85.63;99306.50;5000021;28;20585;-73
2023/10/05 01:39:35;;;;;;;0.10;0.10;;;;;;;8.61;85.90;99306.50;4987981;28;20050;-72
2023/10/05 01:42:06;;;;;;;0.10;0.10;;;;;;;8.57;86.18;99307.31;4999037;28;20133;-72
2023/10/05 01:44:37;;;;;;;0.00;0.00;;;;;;;8.58;86.34;99306.22;4965653;28;20461;-73
2023/10/05 01:47:03;;;;;;;0.10;0.10;;;;;;;8.56;86.34;99303.78;4974366;28;20114;-72
2023/10/05 01:49:31;;;;;;;0.10;0.10;;;;;;;8.55;86.41;99309.50;4965420;28;20056;-71
2023/10/05 01:51:58;;;;;;;0.00;0.00;;;;;;;8.51;86.79;99309.22;4962256;28;20038;-73
2023/10/05 01:54:27;;;;;;;;;;;;;;;8.45;86.94;99308.38;4964154;28;20050;-71
2023/10/05 01:56:55;;;;;;;0.10;0.10;;;;;;;8.47;86.97;99305.41;4976293;28;20458;-73
2023/10/05 01:59:23;;;;;;;0.10;0.10;;;;;;;8.45;87.20;99310.31;4952751;28;20143;-73
2023/10/05 02:01:51;;;;;;;0.00;0.00;;;;;;;8.44;87.27;99311.38;4963119;28;20055;-73
2023/10/05 02:04:22;;;;;;;0.10;0.10;;;;;;;8.42;87.71;99305.38;4966969;28;20051;-73
2023/10/05 02:06:49;;;;;;;0.10;0.10;;;;;;;8.40;87.86;99308.38;4986368;28;20089;-73
2023/10/05 02:09:19;;;;;;;0.10;0.10;;;;;;;8.38;87.83;99307.84;4983698;28;20050;-73
2023/10/05 02:11:47;;;;;;;0.00;0.00;;;;;;;8.37;87.96;99308.94;4965692;28;20054;-72
2023/10/05 02:14:16;;;;;;;0.00;0.00;;;;;;;8.37;87.90;99315.19;4981045;28;20046;-72
2023/10/05 02:16:49;;;;;;;0.00;0.00;;;;;;;8.35;88.38;99308.38;4967487;28;20047;-73
2023/10/05 02:19:16;;;;;;;0.00;0.00;;;;;;;8.31;88.55;99307.28;4954833;28;20042;-70
2023/10/05 02:21:45;;;;;;;0.10;0.10;;;;;;;8.25;88.68;99295.56;4964520;28;20051;-69
2023/10/05 02:24:17;;;;;;;0.10;0.10;;;;;;;8.24;89.38;99310.28;4952056;28;20054;-70
2023/10/05 02:29:24;;;;;;;0.10;0.10;;;;;;;8.22;89.94;99312.47;4984508;28;20058;-70
2023/10/05 02:32:05;;;;;;;0.00;0.00;;;;;;;8.22;90.20;99309.72;4968555;28;20099;-70
2023/10/05 02:37:19;;;;;;;0.00;0.00;;;;;;;8.22;90.16;99305.13;4974258;28;20050;-70
2023/10/05 02:39:49;;;;;;;0.00;0.00;;;;;;;8.15;89.93;99295.56;4984663;28;20053;-69
2023/10/05 02:42:21;;;;;;;0.10;0.10;;;;;;;8.24;89.88;99310.28;4963991;28;20608;-70
2023/10/05 02:44:49;;;;;;;0.00;0.00;;;;;;;8.23;89.91;99312.19;4980171;28;20057;-70
2023/10/05 02:47:22;;;;;;;0.00;0.00;;;;;;;8.24;90.04;99315.72;4963428;28;20042;-69
2023/10/05 02:49:49;;;;;;;0.00;0.00;;;;;;;8.26;90.47;99312.75;4961784;28;20146;-73
2023/10/05 02:52:17;;;;;;;0.10;0.10;;;;;;;8.26;90.28;99310.00;4964322;28;20109;-73
2023/10/05 02:54:49;;;;;;;0.08;0.08;;;;;;;8.23;90.28;99320.38;4946073;28;20061;-73
2023/10/05 02:57:16;;;;;;;0.10;0.10;;;;;;;8.24;90.37;99315.72;4961564;28;20046;-72
2023/10/05 02:59:44;;;;;;;0.10;0.10;;;;;;;8.20;90.38;99318.19;4960798;28;20063;-73
2023/10/05 03:02:14;;;;;;;0.10;0.10;;;;;;;8.15;90.74;99317.38;4964368;28;20046;-72
2023/10/05 03:04:57;;;;;;;0.10;0.10;;;;;;;8.16;90.91;99321.72;4964809;28;20050;-73
2023/10/05 03:07:25;;;;;;;0.10;0.10;;;;;;;8.12;91.12;99317.88;4947515;28;20047;-74
2023/10/05 03:09:58;;;;;;;0.10;0.10;;;;;;;8.14;91.41;99321.19;4982170;28;20526;-72
2023/10/05 03:12:25;;;;;;;0.10;0.10;;;;;;;8.13;91.32;99316.81;4951826;28;20096;-70
2023/10/05 03:14:56;;;;;;;0.00;0.00;;;;;;;8.11;91.56;99317.06;4982456;28;20185;-70
2023/10/05 03:17:26;;;;;;;0.10;0.10;;;;;;;8.12;91.57;99320.59;4962038;28;20560;-70
2023/10/05 03:19:54;;;;;;;0.10;0.10;;;;;;;8.13;91.44;99319.53;4959932;28;20138;-73
2023/10/05 03:22:23;;;;;;;0.00;0.00;;;;;;;8.08;91.58;99318.44;4965213;28;20063;-73
2023/10/05 03:24:53;;;;;;;0.10;0.10;;;;;;;8.09;91.82;99327.44;4963496;28;20043;-73
2023/10/05 03:27:22;;;;;;;0.10;0.10;;;;;;;8.05;91.76;99320.91;4963271;28;20137;-72
2023/10/05 03:29:52;;;;;;;0.10;0.10;;;;;;;7.86;92.10;99288.72;4977429;28;20053;-74
2023/10/05 03:32:19;;;;;;;0.10;0.10;;;;;;;8.02;92.15;99321.41;4980337;28;20602;-73
2023/10/05 03:34:53;;;;;;;0.10;0.10;;;;;;;8.00;92.62;99324.41;4981343;28;20046;-71
2023/10/05 03:37:22;;;;;;;0.10;0.10;;;;;;;7.99;92.69;99321.94;4963431;28;20074;-70
2023/10/05 03:42:15;;;;;;;0.00;0.00;;;;;;;7.94;93.06;99320.88;4981746;28;20089;-70
2023/10/05 03:44:42;;;;;;;0.10;0.10;;;;;;;8.01;92.92;99325.22;4983414;28;20050;-70
2023/10/05 03:47:08;;;;;;;0.10;0.10;;;;;;;7.99;93.02;99328.22;4965999;28;20101;-71
2023/10/05 03:49:36;;;;;;;0.10;0.10;;;;;;;8.00;92.81;99329.03;4962652;28;20089;-71
2023/10/05 03:52:06;;;;;;;0.00;0.00;;;;;;;7.98;92.58;99323.03;4946390;28;20573;-70
2023/10/05 03:54:36;;;;;;;0.10;0.10;;;;;;;7.98;92.70;99328.47;4947101;28;20039;-71
2023/10/05 03:57:10;;;;;;;0.10;0.10;;;;;;;7.95;92.83;99327.94;4954539;28;20054;-71
2023/10/05 03:59:39;;;;;;;0.10;0.10;;;;;;;7.97;93.06;99327.69;4950159;28;20054;-72
2023/10/05 04:02:06;;;;;;;0.10;0.10;;;;;;;7.98;92.89;99331.22;4980379;28;20077;-72
2023/10/05 04:04:37;;;;;;;0.10;0.10;;;;;;;7.95;92.85;99319.78;4981484;28;20058;-70
2023/10/05 04:07:04;;;;;;;0.10;0.10;;;;;;;7.98;92.97;99326.59;4972371;28;20515;-70
2023/10/05 04:09:30;;;;;;;0.10;0.10;;;;;;;8.02;93.11;99329.56;4973876;28;20504;-70
2023/10/05 04:11:58;;;;;;;0.10;0.10;;;;;;;8.08;92.81;99332.03;4970911;28;20244;-70
2023/10/05 04:14:26;;;;;;;0.10;0.10;;;;;;;8.14;92.81;99327.44;4987630;28;20512;-70
2023/10/05 04:16:53;;;;;;;0.10;0.10;;;;;;;8.20;92.96;99330.97;4969564;28;20473;-71
2023/10/05 04:19:19;;;;;;;0.10;0.10;;;;;;;8.23;92.44;99327.69;4963874;28;20073;-71
2023/10/05 04:21:46;;;;;;;0.10;0.10;;;;;;;8.27;91.86;99328.00;4964641;28;20050;-70
2023/10/05 04:24:15;;;;;;;0.10;0.10;;;;;;;8.35;92.08;99335.59;4969180;28;20618;-70
2023/10/05 04:26:45;;;;;;;0.00;0.00;;;;;;;8.42;92.01;99336.19;4970465;28;20061;-73
2023/10/05 04:29:14;;;;;;;0.10;0.10;;;;;;;8.50;91.45;99334.84;4966043;28;20061;-73
2023/10/05 04:31:41;;;;;;;0.10;0.10;;;;;;;8.55;90.45;99334.84;4967827;28;20050;-73
2023/10/05 04:34:11;;;;;;;0.10;0.10;;;;;;;8.55;89.97;99325.84;4966857;28;20070;-74
2023/10/05 04:36:39;;;;;;;0.10;0.10;;;;;;;8.58;89.85;99328.03;4965635;28;20069;-73
2023/10/05 04:39:06;;;;;;;0.00;0.00;;;;;;;8.56;90.02;99331.03;4975792;28;20461;-70
2023/10/05 04:41:34;;;;;;;0.10;0.10;;;;;;;8.63;89.47;99328.84;4987170;28;20056;-73
2023/10/05 04:44:01;;;;;;;0.10;0.10;;;;;;;8.83;88.99;99329.91;4985871;28;20044;-73
2023/10/05 04:46:29;;;;;;;0.10;0.10;;;;;;;8.94;87.88;99331.53;4967720;28;20112;-73
2023/10/05 04:48:55;;;;;;;;;;;;;;;9.00;87.62;99339.72;4988598;28;20301;-73
2023/10/05 04:51:26;;;;;;;0.10;0.10;;;;;;;9.04;87.09;99341.59;4988117;28;19980;-73
2023/10/05 04:53:58;;;;;;;0.10;0.10;;;;;;;9.07;87.04;99346.50;4970727;28;20058;-71
2023/10/05 04:56:40;;;;;;;0.10;0.10;;;;;;;9.10;86.94;99347.88;4636573;28;9999845;-74
2023/10/05 05:04:51;;;;;;;0.10;0.10;;;;;;;9.38;85.62;99331.97;4968589;28;20047;-73
2023/10/05 05:07:21;;;;;;;0.10;0.10;;;;;;;9.44;85.32;99336.31;4960046;28;20185;-71
2023/10/05 05:09:50;;;;;;;0.10;0.10;;;;;;;9.53;85.18;99339.28;4934659;28;20057;-73
2023/10/05 05:12:17;;;;;;;0.10;0.10;;;;;;;9.53;84.81;99343.94;4986322;28;20039;-71
2023/10/05 05:14:45;;;;;;;0.10;0.10;;;;;;;9.61;84.06;99348.81;4971098;28;20526;-71
2023/10/05 05:17:15;;;;;;;0.10;0.10;;;;;;;9.70;84.10;99346.31;4968854;28;20145;-71
2023/10/05 05:19:42;;;;;;;0.10;0.10;;;;;;;9.65;83.55;99338.94;4972143;28;20093;-71
2023/10/05 05:22:08;;;;;;;0.10;0.10;;;;;;;9.77;83.26;99349.56;4968382;28;20489;-72
2023/10/05 05:24:37;;;;;;;0.10;0.10;;;;;;;9.83;83.33;99359.34;4976865;28;20286;-71
2023/10/05 05:27:04;;;;;;;0.10;0.10;;;;;;;9.81;83.12;99350.63;4967303;28;20417;-71
2023/10/05 05:29:32;;;;;;;0.10;0.10;;;;;;;9.94;83.18;99360.13;4967425;28;20492;-71
2023/10/05 05:32:07;;;;;;;0.10;0.10;;;;;;;9.97;82.85;99356.00;4970546;28;20441;-70
2023/10/05 05:34:36;;;;;;;0.10;0.10;;;;;;;10.01;81.97;99344.25;4962758;28;20050;-70
2023/10/05 05:37:04;;;;;;;0.10;0.10;;;;;;;10.10;82.34;99362.75;4950484;28;20294;-70
2023/10/05 05:39:33;;;;;;;0.10;0.10;;;;;;;10.15;81.83;99363.53;4955685;28;20143;-71
2023/10/05 05:42:07;;;;;;;0.10;0.10;;;;;;;10.15;81.62;99365.47;4949483;28;20372;-71
2023/10/05 05:44:36;;;;;;;0.10;0.10;;;;;;;10.10;81.71;99365.50;4954470;28;20535;-70
2023/10/05 05:47:09;;;;;;;0.10;0.10;;;;;;;10.06;81.90;99368.78;4952029;28;21029;-71
2023/10/05 05:49:40;;;;;;;0.10;0.10;;;;;;;10.08;82.11;99365.78;4956830;28;20436;-71
2023/10/05 05:52:08;;;;;;;0.10;0.10;;;;;;;10.21;82.03;99358.88;4966008;28;20522;-71
2023/10/05 05:54:38;;;;;;;0.10;0.10;;;;;;;10.42;80.81;99356.84;4972890;28;20039;-71
2023/10/05 05:57:07;;;;;;;0.10;0.10;;;;;;;10.60;80.07;99362.72;4948855;28;20583;-71
2023/10/05 05:59:38;;;;;;;0.10;0.10;;;;;;;10.73;79.57;99361.25;4952987;28;20050;-71
2023/10/05 06:02:07;;;;;;;0.10;0.10;;;;;;;10.77;78.53;99363.13;4990932;28;20039;-73
2023/10/05 06:04:35;;;;;;;0.10;0.10;;;;;;;10.85;78.55;99364.44;4974140;28;20050;-70
2023/10/05 06:07:12;;;;;;;0.10;0.10;;;;;;;10.97;78.36;99365.97;4967316;28;20105;-70
2023/10/05 06:09:42;;;;;;;0.10;0.10;;;;;;;10.94;77.49;99369.28;4965235;28;20047;-70
2023/10/05 06:12:10;;;;;;;0.10;0.10;;;;;;;10.78;78.07;99364.75;4974654;28;20137;-70
2023/10/05 06:14:37;;;;;;;0.10;0.10;;;;;;;10.73;78.21;99370.28;4977736;28;20514;-71
2023/10/05 06:17:03;;;;;;;0.10;0.10;;;;;;;10.71;78.41;99386.16;4979611;28;20078;-70
2023/10/05 06:19:30;;;;;;;0.10;0.10;;;;;;;10.69;78.18;99371.13;4973125;28;20062;-70
2023/10/05 06:21:56;;;;;;;0.10;0.10;;;;;;;10.71;78.22;99377.13;4976014;28;20053;-70
2023/10/05 06:24:24;;;;;;;0.10;0.10;;;;;;;10.70;78.12;99376.31;4981714;28;20047;-71
2023/10/05 06:26:51;;;;;;;0.10;0.10;;;;;;;10.75;77.95;99379.00;4973542;28;20045;-71
2023/10/05 06:29:18;;;;;;;0.10;0.10;;;;;;;10.83;77.78;99371.28;4960996;28;20057;-71
2023/10/05 06:31:44;;;;;;;0.10;0.10;;;;;;;10.85;77.82;99363.59;4976414;28;20051;-70
2023/10/05 06:34:10;;;;;;;0.10;0.10;;;;;;;11.01;77.39;99378.78;4977298;28;20066;-70
2023/10/05 06:36:37;;;;;;;0.10;0.10;;;;;;;11.06;76.55;99375.16;4978521;28;20178;-70
2023/10/05 06:39:05;;;;;;;0.10;0.10;;;;;;;11.10;76.74;99367.22;4975666;28;20062;-70
2023/10/05 06:41:34;;;;;;;0.10;0.10;;;;;;;11.33;76.30;99368.34;4974260;28;20054;-70
2023/10/05 06:44:02;;;;;;;0.10;0.10;;;;;;;11.56;74.86;99377.66;4972288;28;20152;-70
2023/10/05 06:46:29;;;;;;;0.10;0.10;;;;;;;11.60;74.30;99361.47;4985448;28;20046;-70
2023/10/05 06:48:55;;;;;;;0.20;0.20;;;;;;;11.66;73.57;99368.50;4966685;28;20117;-71
2023/10/05 06:51:25;;;;;;;0.10;0.10;;;;;;;11.71;73.25;99371.19;4964795;28;20047;-71
2023/10/05 06:53:52;;;;;;;0.10;0.10;;;;;;;11.66;72.94;99362.22;4930149;28;20210;-72
2023/10/05 06:56:18;;;;;;;;;;;;;;;11.71;72.76;99373.94;4964469;28;20057;-71
2023/10/05 06:58:47;;;;;;;0.10;0.10;;;;;;;11.55;72.51;99369.72;4977550;28;20310;-71
2023/10/05 07:01:13;;;;;;;0.10;0.10;;;;;;;11.51;72.90;99385.94;4979257;28;20058;-71
2023/10/05 07:03:41;;;;;;;0.10;0.10;;;;;;;11.52;72.90;99381.25;4984823;28;20133;-71
2023/10/05 07:06:07;;;;;;;0.10;0.10;;;;;;;11.61;73.16;99380.31;4983443;28;20407;-70
2023/10/05 07:08:33;;;;;;;0.10;0.10;;;;;;;11.75;72.93;99374.16;4971727;28;20125;-70
2023/10/05 07:11:00;;;;;;;0.10;0.10;;;;;;;11.83;72.49;99383.63;4966282;28;20425;-70
2023/10/05 07:13:28;;;;;;;0.20;0.20;;;;;;;11.91;71.97;99369.28;4982229;28;20055;-71
2023/10/05 07:15:56;;;;;;;0.10;0.10;;;;;;;12.08;70.90;99387.19;4981032;28;20117;-71
2023/10/05 07:18:24;;;;;;;0.10;0.10;;;;;;;12.05;70.61;99372.97;4965379;28;20080;-71
2023/10/05 07:20:50;;;;;;;;;;;;;;;11.93;70.94;99378.03;4964826;28;20095;-71
2023/10/05 07:23:17;;;;;;;0.10;0.10;;;;;;;11.85;71.46;99368.53;4966022;28;20341;-71
2023/10/05 07:25:45;;;;;;;0.10;0.10;;;;;;;11.89;71.53;99391.50;4967189;28;20136;-70
2023/10/05 07:28:14;;;;;;;0.10;0.10;;;;;;;11.95;71.09;99375.81;4963918;28;20384;-71
2023/10/05 07:30:42;;;;;;;0.10;0.10;;;;;;;11.96;70.50;99384.84;4974149;28;20050;-70
2023/10/05 07:33:11;;;;;;;0.20;0.20;;;;;;;11.99;69.94;99385.06;4979857;28;20611;-74
2023/10/05 07:35:38;;;;;;;0.10;0.10;;;;;;;11.86;70.29;99391.25;4963334;28;20066;-71
2023/10/05 07:38:06;;;;;;;0.10;0.10;;;;;;;11.85;70.28;99386.88;4981318;28;20054;-70
2023/10/05 07:40:35;;;;;;;0.10;0.10;;;;;;;11.89;70.72;99386.00;4962273;28;20062;-70
2023/10/05 07:43:03;;;;;;;0.13;0.13;;;;;;;11.96;70.30;99382.13;4965965;28;20058;-71
2023/10/05 07:45:29;;;;;;;0.10;0.10;;;;;;;12.04;69.85;99386.97;4979579;28;20586;-71
2023/10/05 07:47:56;;;;;;;0.13;0.13;;;;;;;12.04;69.59;99385.03;4968506;28;20051;-70
2023/10/05 07:50:24;;;;;;;0.17;0.17;;;;;;;12.09;69.76;99386.88;4986016;28;20149;-70
2023/10/05 07:52:50;;;;;;;0.20;0.20;;;;;;;12.17;69.64;99379.91;4986354;28;20042;-71
2023/10/05 07:55:16;;;;;;;0.10;0.10;;;;;;;12.27;69.40;99387.22;4987544;28;20460;-70
2023/10/05 07:57:44;;;;;;;0.10;0.10;;;;;;;12.38;69.07;99385.94;4970544;28;20078;-70
2023/10/05 08:00:12;;;;;;;0.10;0.10;;;;;;;12.39;68.12;99387.56;4965566;28;20430;-71
2023/10/05 08:02:39;;;;;;;0.20;0.20;;;;;;;12.43;68.56;99390.53;4965977;28;20482;-71
2023/10/05 08:05:06;;;;;;;0.20;0.20;;;;;;;12.39;67.28;99381.28;4947696;28;20057;-70
2023/10/05 08:07:33;;;;;;;0.10;0.10;;;;;;;12.38;67.24;99385.13;4948513;28;20046;-71
2023/10/05 08:10:00;;;;;;;0.10;0.10;;;;;;;12.38;67.24;99387.88;4965481;28;20058;-71
2023/10/05 08:12:27;;;;;;;0.10;0.10;;;;;;;12.42;67.01;99392.47;4967629;28;20085;-71
2023/10/05 08:14:54;;;;;;;0.17;0.17;;;;;;;12.29;66.92;99388.53;4968947;28;20122;-71
2023/10/05 08:17:21;;;;;;;0.20;0.20;;;;;;;12.21;67.15;99380.97;4966407;28;20951;-70
2023/10/05 08:19:48;;;;;;;0.20;0.20;;;;;;;12.34;67.78;99382.97;4966139;28;20157;-71
2023/10/05 08:22:17;;;;;;;0.10;0.10;;;;;;;12.49;67.15;99408.53;4982553;28;20065;-71
2023/10/05 08:24:45;;;;;;;0.10;0.10;;;;;;;12.37;67.17;99387.03;4977445;28;20137;-70
2023/10/05 08:27:14;;;;;;;0.10;0.10;;;;;;;12.28;67.32;99388.84;4967081;28;20097;-71
2023/10/05 08:29:42;;;;;;;0.20;0.20;;;;;;;12.19;67.44;99385.94;4965871;28;20050;-70
2023/10/05 08:32:16;;;;;;;0.10;0.10;;;;;;;12.26;67.41;99385.59;4949250;28;20093;-71
2023/10/05 08:34:44;;;;;;;0.20;0.20;;;;;;;12.39;67.02;99384.00;4970357;28;20529;-70
2023/10/05 08:37:14;;;;;;;0.20;0.20;;;;;;;12.47;66.60;99375.09;4960915;28;20438;-71
2023/10/05 08:39:41;;;;;;;0.20;0.20;;;;;;;12.51;66.11;99386.28;4936766;28;20054;-71
2023/10/05 08:42:11;;;;;;;0.20;0.20;;;;;;;12.64;65.69;99388.28;4989776;28;20193;-71
2023/10/05 08:44:38;;;;;;;0.20;0.20;;;;;;;12.84;65.21;99384.41;4988239;28;20815;-71
2023/10/05 08:47:13;;;;;;;0.20;0.20;;;;;;;13.01;64.28;99391.25;4984923;28;20050;-71
2023/10/05 08:49:43;;;;;;;0.20;0.20;;;;;;;12.98;64.16;99387.16;4971048;28;20142;-71
2023/10/05 08:52:18;;;;;;;0.20;0.20;;;;;;;12.95;64.13;99385.03;4989113;28;20046;-71
2023/10/05 08:54:46;;;;;;;0.20;0.20;;;;;;;13.02;64.06;99387.38;4980834;28;20950;-70
2023/10/05 08:57:16;;;;;;;0.20;0.20;;;;;;;12.90;63.54;99396.91;4968559;28;20066;-71
2023/10/05 08:59:46;;;;;;;0.20;0.20;;;;;;;12.77;63.59;99397.66;4956854;28;20113;-70
2023/10/05 09:02:18;;;;;;;0.20;0.20;;;;;;;12.63;63.90;99400.38;4989183;28;20492;-70
2023/10/05 09:04:50;;;;;;;0.20;0.20;;;;;;;12.67;64.01;99392.38;4987720;28;20050;-71
2023/10/05 09:07:28;;;;;;;0.20;0.20;;;;;;;12.81;63.86;99384.19;4985386;28;20074;-71
2023/10/05 09:09:54;;;;;;;0.20;0.20;;;;;;;12.71;63.60;99342.06;4966868;28;20050;-70
2023/10/05 09:12:34;;;;;;;0.20;0.20;;;;;;;13.19;62.92;99382.13;4969073;28;20133;-70
2023/10/05 09:15:28;;;;;;;0.20;0.20;;;;;;;13.17;62.43;99394.53;4982808;28;20047;-70
2023/10/05 09:20:36;;;;;;;0.20;0.20;;;;;;;13.13;62.99;99380.63;4966237;28;20051;-70
2023/10/05 09:23:05;;;;;;;0.20;0.20;;;;;;;12.99;63.46;99385.25;4966783;28;20059;-70
2023/10/05 09:25:34;;;;;;;0.20;0.20;;;;;;;12.80;64.18;99377.06;4982290;28;20077;-70
2023/10/05 09:28:14;;;;;;;0.20;0.20;;;;;;;12.69;65.49;99381.91;4968624;28;20046;-71
2023/10/05 09:30:49;;;;;;;0.20;0.20;;;;;;;12.63;65.99;99379.22;4977739;28;20180;-70
2023/10/05 09:33:18;;;;;;;0.13;0.13;;;;;;;12.52;66.42;99364.06;4987428;28;20407;-70
2023/10/05 09:35:46;;;;;;;0.10;0.10;;;;;;;12.71;67.41;99376.94;4983325;28;20422;-70
2023/10/05 09:38:17;;;;;;;0.20;0.20;;;;;;;12.76;67.46;99377.66;4977353;28;20054;-70
2023/10/05 09:40:47;;;;;;;0.10;0.10;;;;;;;12.80;67.40;99377.06;4988330;28;20208;-70
2023/10/05 09:43:21;;;;;;;0.20;0.20;;;;;;;12.75;66.14;99369.72;4986461;28;20054;-70
2023/10/05 09:45:52;;;;;;;0.10;0.10;;;;;;;12.71;66.01;99387.91;4969493;28;20042;-70
2023/10/05 09:48:20;;;;;;;0.20;0.20;;;;;;;12.67;66.68;99356.72;4981752;28;20059;-70
2023/10/05 09:50:47;;;;;;;0.20;0.20;;;;;;;12.94;67.81;99379.84;4986640;28;20050;-70
2023/10/05 09:53:19;;;;;;;0.10;0.10;;;;;;;12.41;68.40;99303.09;4982845;28;20046;-71
2023/10/05 09:55:49;;;;;;;0.20;0.20;;;;;;;12.90;69.11;99379.66;4969668;28;20046;-71
2023/10/05 09:58:18;;;;;;;0.20;0.20;;;;;;;12.90;69.67;99382.38;4977092;28;20050;-71
2023/10/05 10:03:12;;;;;;;0.20;0.20;;;;;;;13.03;69.55;99387.09;4987239;28;20065;-71
2023/10/05 10:05:42;;;;;;;0.20;0.20;;;;;;;13.57;68.61;99361.13;4985368;28;20043;-72
2023/10/05 10:08:13;;;;;;;0.20;0.20;;;;;;;14.24;66.47;99373.47;4977226;28;20062;-72
2023/10/05 10:10:43;;;;;;;0.30;0.30;;;;;;;14.43;65.48;99378.78;4978378;28;20082;-71
2023/10/05 10:13:12;;;;;;;0.25;0.25;;;;;;;14.72;65.19;99383.09;4988762;28;20050;-71
2023/10/05 10:15:45;;;;;;;0.30;0.30;;;;;;;15.50;62.63;99372.81;4985447;28;20076;-71
2023/10/05 10:18:14;;;;;;;0.40;0.40;;;;;;;16.82;58.87;99374.94;4977575;28;20038;-71
2023/10/05 10:20:48;;;;;;;0.30;0.30;;;;;;;18.70;52.50;99371.38;4977710;28;20426;-72
2023/10/05 10:23:19;;;;;;;0.20;0.20;;;;;;;19.18;48.05;99382.16;4987451;28;20052;-71
2023/10/05 10:25:46;;;;;;;0.20;0.20;;;;;;;17.44;49.97;99359.81;4985502;28;20046;-71
2023/10/05 10:28:20;;;;;;;0.20;0.20;;;;;;;16.72;51.01;99359.53;4976193;28;20051;-71
2023/10/05 10:30:49;;;;;;;0.30;0.30;;;;;;;16.01;50.69;99370.56;4987115;28;20094;-71
2023/10/05 10:33:27;;;;;;;0.30;0.30;;;;;;;15.47;52.14;99365.19;4971072;28;20056;-71
2023/10/05 10:35:56;;;;;;;0.20;0.20;;;;;;;14.94;53.89;99369.63;4975390;28;20139;-71
2023/10/05 10:38:24;;;;;;;0.20;0.20;;;;;;;14.52;54.92;99372.56;4970202;28;20217;-71
2023/10/05 10:41:09;;;;;;;0.20;0.20;;;;;;;14.29;55.79;99372.53;4966021;28;20065;-71
2023/10/05 10:43:37;;;;;;;0.20;0.20;;;;;;;14.13;56.53;99375.63;4961001;28;20065;-70
2023/10/05 10:46:13;;;;;;;0.20;0.20;;;;;;;13.89;56.62;99373.09;4953317;28;20141;-70
2023/10/05 10:48:58;;;;;;;0.20;0.20;;;;;;;13.62;56.67;99372.03;4958591;28;20081;-71
2023/10/05 10:51:33;;;;;;;0.20;0.20;;;;;;;13.49;57.79;99389.31;4960312;28;20233;-70
2023/10/05 10:54:08;;;;;;;0.20;0.20;;;;;;;13.45;61.24;99375.38;4959679;28;20051;-70
2023/10/05 10:56:35;;;;;;;0.20;0.20;;;;;;;13.40;60.94;99384.50;4960820;28;20828;-71
2023/10/05 10:59:11;;;;;;;0.20;0.20;;;;;;;13.17;59.84;99386.28;4966837;28;20073;-71
2023/10/05 11:01:43;;;;;;;0.20;0.20;;;;;;;13.11;61.08;99390.25;4985658;28;20414;-71
2023/10/05 11:04:32;;;;;;;0.20;0.20;;;;;;;13.31;60.29;99389.88;4969613;28;20146;-71
2023/10/05 11:07:05;;;;;;;0.30;0.30;;;;;;;13.64;59.17;99377.19;4987100;28;20046;-71
2023/10/05 11:09:36;;;;;;;0.30;0.30;;;;;;;14.02;57.42;99396.22;4972520;28;20050;-70
2023/10/05 11:12:11;;;;;;;0.32;0.32;;;;;;;14.07;57.30;99396.09;4987594;28;20585;-70
2023/10/05 11:14:42;;;;;;;0.60;0.60;;;;;;;15.56;54.03;99388.09;4985115;28;20069;-71
2023/10/05 11:17:34;;;;;;;0.80;0.80;;;;;;;16.70;50.36;99397.66;4969123;28;20047;-71
2023/10/05 11:20:20;;;;;;;0.80;0.80;;;;;;;18.35;47.41;99393.81;4964861;28;20061;-71
2023/10/05 11:22:46;;;;;;;0.40;0.40;;;;;;;18.80;45.69;99385.94;4991499;28;20963;-71
2023/10/05 11:25:16;;;;;;;0.60;0.60;;;;;;;18.60;45.48;99387.59;4985867;28;20448;-71
2023/10/05 11:27:48;;;;;;;0.50;0.50;;;;;;;18.33;46.24;99389.75;4984398;28;20128;-71
2023/10/05 11:30:21;;;;;;;0.20;0.20;;;;;;;17.32;47.42;99390.09;4972227;28;20049;-71
2023/10/05 11:32:55;;;;;;;0.20;0.20;;;;;;;16.11;51.18;99388.72;4987050;28;20054;-71
2023/10/05 11:35:29;;;;;;;0.20;0.20;;;;;;;15.28;53.56;99379.19;4989231;28;20149;-71
2023/10/05 11:38:04;;;;;;;0.20;0.20;;;;;;;14.56;56.20;99385.38;4996103;28;20125;-71
2023/10/05 11:40:31;;;;;;;0.20;0.20;;;;;;;14.20;58.50;99388.13;4967383;28;20085;-71
2023/10/05 11:43:04;;;;;;;0.20;0.20;;;;;;;14.09;59.72;99387.56;4968528;28;20059;-71
2023/10/05 11:45:31;;;;;;;0.30;0.30;;;;;;;13.96;59.72;99387.25;4952927;28;20450;-70
2023/10/05 11:47:59;;;;;;;0.30;0.30;;;;;;;14.45;59.47;99381.22;4968285;28;20050;-71
2023/10/05 11:50:32;;;;;;;0.28;0.28;;;;;;;14.70;59.04;99385.31;4976868;28;20487;-71
2023/10/05 11:52:59;;;;;;;0.30;0.30;;;;;;;14.79;59.46;99379.09;4986680;28;20053;-70
2023/10/05 11:55:26;;;;;;;0.90;0.90;;;;;;;15.90;58.48;99371.19;4990480;28;20632;-71
2023/10/05 11:57:52;;;;;;;0.20;0.20;;;;;;;16.80;54.85;99368.94;4978815;28;20580;-71
2023/10/05 12:00:19;;;;;;;0.20;0.20;;;;;;;16.28;54.96;99367.81;4979183;28;20140;-71
2023/10/05 12:02:45;;;;;;;0.20;0.20;;;;;;;15.71;55.30;99369.50;4988306;28;20054;-71
2023/10/05 12:05:14;;;;;;;0.20;0.20;;;;;;;15.35;55.42;99363.03;4988399;28;20425;-70
2023/10/05 12:07:41;;;;;;;1.00;1.00;;;;;;;15.99;54.21;99363.72;4983939;28;20058;-71
2023/10/05 12:10:09;;;;;;;1.00;1.00;;;;;;;17.90;49.68;99364.00;4980241;28;20051;-71
2023/10/05 12:12:36;;;;;;;1.00;1.00;;;;;;;20.13;45.33;99349.94;4971796;28;20141;-72
2023/10/05 12:15:12;;;;;;;1.00;1.00;;;;;;;22.64;40.31;99357.78;4970456;28;20042;-71
2023/10/05 12:17:39;;;;;;;0.30;0.30;;;;;;;21.36;39.85;99352.50;4981029;28;20053;-71
2023/10/05 12:20:07;;;;;;;1.05;1.05;;;;;;;20.36;42.71;99347.44;4969057;28;20056;-71
2023/10/05 12:22:37;;;;;;;1.10;1.10;;;;;;;21.72;39.42;99350.63;4989056;28;20058;-71